Time;durP1;ratioP1;P1;durP2;ratioP2;P2;SDS_P1;SDS_P2;PMS_P1;PMS_P2;Temp;Humidity;BMP_temperature;BMP_pressure;BME280_temperature;BME280_humidity;BME280_pressure;Samples;Min_cycle;Max_cycle;Signal;HPM_P1;HPM_P2
2023/03/10 00:01:19;;;;;;;65.05;58.78;;;;;;;11.35;100.00;100236.72;5068587;28;20052;-79
2023/03/10 00:03:47;;;;;;;68.15;61.83;;;;;;;11.36;100.00;100229.56;5066966;28;20095;-79
2023/03/10 00:06:15;;;;;;;60.67;54.78;;;;;;;11.23;100.00;100220.69;5066808;28;20061;-79
2023/03/10 00:08:43;;;;;;;62.40;56.05;;;;;;;11.27;100.00;100217.59;5066891;28;20111;-79
2023/03/10 00:11:10;;;;;;;67.05;60.90;;;;;;;11.20;100.00;100215.03;5066621;28;20572;-79
2023/03/10 00:13:37;;;;;;;64.07;58.00;;;;;;;11.14;100.00;100213.25;5067674;28;20075;-79
2023/03/10 00:16:05;;;;;;;64.43;58.22;;;;;;;11.16;100.00;100213.81;5067438;28;20559;-79
2023/03/10 00:18:34;;;;;;;64.35;58.25;;;;;;;11.19;100.00;100216.84;5067611;28;20518;-79
2023/03/10 00:21:01;;;;;;;87.35;79.50;;;;;;;11.23;100.00;100212.72;5067333;28;20500;-79
2023/03/10 00:23:27;;;;;;;95.57;87.20;;;;;;;11.17;100.00;100218.13;5067194;28;20049;-79
2023/03/10 00:25:55;;;;;;;85.97;78.15;;;;;;;11.23;100.00;100222.56;5066846;28;20049;-79
2023/03/10 00:28:22;;;;;;;66.25;60.15;;;;;;;11.29;100.00;100228.84;5067604;28;20565;-79
2023/03/10 00:31:00;;;;;;;56.03;50.42;;;;;;;11.18;100.00;100222.41;5068323;28;20045;-79
2023/03/10 00:33:27;;;;;;;57.67;52.10;;;;;;;11.10;100.00;100228.81;5067696;28;20053;-79
2023/03/10 00:36:07;;;;;;;55.95;50.45;;;;;;;11.29;100.00;100226.16;5067927;28;20572;-79
2023/03/10 00:38:35;;;;;;;62.97;57.25;;;;;;;11.07;100.00;100220.47;5067887;28;20075;-79
2023/03/10 00:41:04;;;;;;;69.05;62.88;;;;;;;11.12;100.00;100229.41;5068091;28;20080;-79
2023/03/10 00:43:32;;;;;;;57.92;52.33;;;;;;;11.00;100.00;100229.31;5067766;28;20057;-79
2023/03/10 00:45:58;;;;;;;53.72;48.63;;;;;;;11.11;100.00;100227.78;5066406;28;20049;-79
2023/03/10 00:48:25;;;;;;;66.57;60.17;;;;;;;10.99;100.00;100224.25;5066403;28;20045;-79
2023/03/10 00:50:52;;;;;;;65.85;59.65;;;;;;;11.17;100.00;100224.25;5066008;28;20048;-79
2023/03/10 00:53:20;;;;;;;83.13;75.90;;;;;;;11.15;100.00;100228.97;5066320;28;20045;-79
2023/03/10 00:55:58;;;;;;;67.22;61.17;;;;;;;11.18;100.00;100231.19;5067557;28;20073;-79
2023/03/10 00:58:24;;;;;;;87.05;80.25;;;;;;;11.13;100.00;100232.88;5067135;28;20559;-80
2023/03/10 01:00:52;;;;;;;68.85;62.53;;;;;;;11.03;100.00;100244.00;5067231;28;20053;-79
2023/03/10 01:03:18;;;;;;;79.40;72.57;;;;;;;10.91;100.00;100243.94;5066744;28;20057;-79
2023/03/10 01:05:46;;;;;;;71.82;65.05;;;;;;;10.91;100.00;100243.13;5066244;28;20067;-79
2023/03/10 01:08:13;;;;;;;66.68;60.28;;;;;;;10.95;100.00;100249.59;5067616;28;20045;-79
2023/03/10 01:10:41;;;;;;;70.35;63.65;;;;;;;10.80;100.00;100249.13;5067814;28;20071;-79
2023/03/10 01:13:08;;;;;;;65.47;59.13;;;;;;;10.53;100.00;100252.06;5068274;28;20114;-79
2023/03/10 01:15:34;;;;;;;64.82;58.70;;;;;;;10.40;100.00;100260.91;5067065;28;20045;-79
2023/03/10 01:18:02;;;;;;;77.15;70.35;;;;;;;10.28;100.00;100265.28;5066954;28;20396;-79
2023/03/10 01:20:29;;;;;;;68.25;61.70;;;;;;;10.70;100.00;100254.97;5067324;28;20053;-79
2023/03/10 01:22:56;;;;;;;79.53;72.43;;;;;;;10.59;100.00;100259.16;5067516;28;20118;-79
2023/03/10 01:25:23;;;;;;;68.93;62.63;;;;;;;10.76;100.00;100257.53;5067129;28;20045;-79
2023/03/10 01:27:51;;;;;;;84.43;77.22;;;;;;;10.68;100.00;100255.19;5066558;28;20049;-79
2023/03/10 01:30:18;;;;;;;81.90;75.15;;;;;;;10.47;100.00;100247.59;5066402;28;20053;-79
2023/03/10 01:32:45;;;;;;;74.20;67.70;;;;;;;10.46;100.00;100249.41;5066278;28;20048;-79
2023/03/10 01:35:12;;;;;;;78.88;72.07;;;;;;;10.42;100.00;100256.19;5066063;28;20049;-79
2023/03/10 01:37:38;;;;;;;75.90;69.30;;;;;;;10.31;100.00;100257.69;5065854;28;20056;-79
2023/03/10 01:40:08;;;;;;;72.57;66.07;;;;;;;10.54;100.00;100257.13;5065629;28;20057;-79
2023/03/10 01:42:35;;;;;;;79.75;72.75;;;;;;;10.43;100.00;100267.63;5065582;28;20056;-79
2023/03/10 01:45:09;;;;;;;76.28;69.57;;;;;;;10.47;100.00;100255.56;5065067;28;20427;-79
2023/03/10 01:47:36;;;;;;;86.80;79.60;;;;;;;10.41;100.00;100256.41;5065818;28;20048;-79
2023/03/10 01:50:05;;;;;;;86.25;78.95;;;;;;;10.63;100.00;100254.22;5064666;28;20045;-79
2023/03/10 01:52:33;;;;;;;102.82;94.78;;;;;;;10.60;100.00;100254.66;5064421;28;20079;-79
2023/03/10 01:55:05;;;;;;;92.15;84.68;;;;;;;10.54;100.00;100254.47;5065041;28;20049;-79
2023/03/10 01:57:37;;;;;;;87.97;80.63;;;;;;;10.54;100.00;100261.63;5064958;28;20087;-79
2023/03/10 02:00:11;;;;;;;104.13;96.03;;;;;;;10.40;100.00;100262.75;5065686;28;20056;-79
2023/03/10 02:02:42;;;;;;;103.68;95.38;;;;;;;10.37;100.00;100263.19;5065309;28;20076;-79
2023/03/10 02:05:09;;;;;;;111.20;102.80;;;;;;;10.36;100.00;100261.56;5066236;28;20049;-79
2023/03/10 02:07:36;;;;;;;74.03;67.53;;;;;;;10.53;100.00;100260.00;5067065;28;20041;-79
2023/03/10 02:10:04;;;;;;;77.88;71.07;;;;;;;10.45;100.00;100250.47;5065794;28;20053;-79
2023/03/10 02:12:30;;;;;;;71.95;65.32;;;;;;;10.47;100.00;100266.19;5065456;28;20048;-79
2023/03/10 02:14:57;;;;;;;77.47;70.65;;;;;;;10.31;100.00;100256.88;5065238;28;20123;-79
2023/03/10 02:17:26;;;;;;;82.22;75.07;;;;;;;10.22;100.00;100258.97;5065018;28;20080;-79
2023/03/10 02:20:15;;;;;;;83.10;75.82;;;;;;;10.34;100.00;100250.34;5065010;28;20131;-79
2023/03/10 02:22:42;;;;;;;88.00;80.63;;;;;;;10.17;100.00;100255.34;5064665;28;20048;-79
2023/03/10 02:25:20;;;;;;;93.00;85.30;;;;;;;10.24;100.00;100254.25;5064908;28;20081;-79
2023/03/10 02:27:49;;;;;;;82.85;75.65;;;;;;;10.18;100.00;100257.78;5064973;28;20107;-79
2023/03/10 02:30:20;;;;;;;89.88;82.30;;;;;;;10.08;100.00;100252.94;5064810;28;20071;-79
2023/03/10 02:32:51;;;;;;;87.15;79.78;;;;;;;10.27;100.00;100255.69;5065589;28;20052;-79
2023/03/10 02:35:18;;;;;;;86.88;79.47;;;;;;;10.21;100.00;100267.16;5065339;28;20294;-79
2023/03/10 02:37:45;;;;;;;84.75;77.47;;;;;;;9.91;100.00;100272.22;5064664;28;20110;-79
2023/03/10 02:40:30;;;;;;;93.82;86.07;;;;;;;10.22;100.00;100274.88;5065169;28;20049;-79
2023/03/10 02:43:00;;;;;;;75.60;68.95;;;;;;;10.15;100.00;100268.00;5064885;28;20052;-79
2023/03/10 02:45:29;;;;;;;83.68;76.40;;;;;;;10.05;100.00;100269.28;5064993;28;20041;-80
2023/03/10 02:47:56;;;;;;;85.93;78.68;;;;;;;10.03;100.00;100265.22;5064894;28;20045;-79
2023/03/10 02:50:25;;;;;;;74.53;68.13;;;;;;;10.20;100.00;100269.00;5064696;28;20049;-79
2023/03/10 02:52:57;;;;;;;68.82;62.88;;;;;;;10.07;100.00;100272.53;5065177;28;20044;-79
2023/03/10 02:55:24;;;;;;;;;;;;;;;9.96;100.00;100270.56;5065142;28;20048;-79
2023/03/10 02:57:50;;;;;;;91.57;84.03;;;;;;;10.01;100.00;100272.56;5064592;28;19920;-79
2023/03/10 03:00:19;;;;;;;98.07;90.25;;;;;;;9.89;100.00;100276.91;5064470;28;20048;-79
2023/03/10 03:02:46;;;;;;;74.68;67.90;;;;;;;10.04;100.00;100283.56;5064903;28;20108;-79
2023/03/10 03:05:12;;;;;;;78.68;71.97;;;;;;;10.09;100.00;100277.63;5063471;28;20049;-79
2023/03/10 03:07:39;;;;;;;80.85;74.05;;;;;;;10.11;100.00;100285.38;5065171;28;20053;-79
2023/03/10 03:10:06;;;;;;;80.68;73.97;;;;;;;10.28;100.00;100284.66;5064038;28;20053;-79
2023/03/10 03:12:33;;;;;;;72.97;66.82;;;;;;;10.35;100.00;100289.97;5063400;28;20068;-79
2023/03/10 03:15:00;;;;;;;65.63;59.63;;;;;;;10.26;100.00;100288.56;5063924;28;20044;-79
2023/03/10 03:17:28;;;;;;;78.50;72.03;;;;;;;10.39;100.00;100283.19;5065164;28;20048;-79
2023/03/10 03:19:55;;;;;;;76.95;70.72;;;;;;;10.22;100.00;100282.84;5065319;28;20072;-79
2023/03/10 03:22:22;;;;;;;71.40;65.38;;;;;;;10.27;100.00;100284.91;5065289;28;20045;-79
2023/03/10 03:24:49;;;;;;;66.18;59.97;;;;;;;10.13;100.00;100278.81;5064239;28;20106;-79
2023/03/10 03:27:15;;;;;;;68.35;61.95;;;;;;;10.07;100.00;100291.09;5063802;28;20075;-79
2023/03/10 03:29:42;;;;;;;62.20;55.78;;;;;;;10.19;100.00;100296.53;5063944;28;20490;-79
2023/03/10 03:32:09;;;;;;;63.83;57.92;;;;;;;10.11;100.00;100286.19;5064446;28;20057;-79
2023/03/10 03:34:37;;;;;;;58.78;53.33;;;;;;;10.06;100.00;100288.66;5064786;28;20053;-79
2023/03/10 03:37:03;;;;;;;54.67;49.63;;;;;;;9.95;100.00;100287.47;5063966;28;20053;-79
2023/03/10 03:39:30;;;;;;;55.38;50.17;;;;;;;10.04;100.00;100299.47;5064262;28;20052;-80
2023/03/10 03:41:57;;;;;;;60.88;54.90;;;;;;;10.05;100.00;100290.50;5063901;28;20044;-79
2023/03/10 03:44:24;;;;;;;57.17;51.80;;;;;;;10.02;100.00;100282.97;5064848;28;20079;-79
2023/03/10 03:46:50;;;;;;;58.03;52.53;;;;;;;9.87;100.00;100279.78;5063931;28;20045;-79
2023/03/10 03:49:17;;;;;;;59.00;53.40;;;;;;;9.75;100.00;100271.69;5063963;28;20461;-79
2023/03/10 03:51:45;;;;;;;68.45;61.28;;;;;;;9.93;100.00;100271.00;5063348;28;20079;-79
2023/03/10 03:54:12;;;;;;;99.00;80.82;;;;;;;9.75;100.00;100265.56;5064004;28;20049;-79
2023/03/10 03:56:38;;;;;;;77.00;69.07;;;;;;;9.73;100.00;100265.75;5063652;28;20056;-79
2023/03/10 03:59:05;;;;;;;83.07;73.53;;;;;;;9.59;100.00;100270.34;5063169;28;20045;-79
2023/03/10 04:01:32;;;;;;;70.95;64.30;;;;;;;9.35;100.00;100273.69;5062405;28;20048;-79
2023/03/10 04:03:59;;;;;;;67.10;61.03;;;;;;;9.19;100.00;100264.31;5062779;28;20484;-79
2023/03/10 04:06:26;;;;;;;66.95;60.72;;;;;;;8.91;100.00;100268.03;5062035;28;20049;-79
2023/03/10 04:08:54;;;;;;;72.65;65.38;;;;;;;8.72;100.00;100255.66;5062441;28;20461;-79
2023/03/10 04:11:21;;;;;;;75.22;68.22;;;;;;;8.40;100.00;100250.13;5062143;28;20049;-79
2023/03/10 04:13:47;;;;;;;78.75;71.85;;;;;;;8.38;100.00;100249.53;5061614;28;20114;-79
2023/03/10 04:16:14;;;;;;;89.40;81.60;;;;;;;8.27;100.00;100248.25;5061188;28;20099;-79
2023/03/10 04:18:41;;;;;;;89.78;82.18;;;;;;;8.10;100.00;100246.19;5061666;28;20041;-79
2023/03/10 04:21:08;;;;;;;65.53;59.13;;;;;;;7.97;100.00;100247.00;5061185;28;20473;-79
2023/03/10 04:23:35;;;;;;;63.88;57.95;;;;;;;8.14;100.00;100248.25;5060675;28;20049;-79
2023/03/10 04:26:06;;;;;;;89.05;79.55;;;;;;;8.19;100.00;100251.09;5060546;28;20056;-79
2023/03/10 04:28:33;;;;;;;66.53;59.92;;;;;;;7.88;100.00;100248.19;5060668;28;20045;-79
2023/03/10 04:31:00;;;;;;;98.30;76.10;;;;;;;7.74;100.00;100255.25;5061244;28;20111;-79
2023/03/10 04:33:27;;;;;;;67.50;60.78;;;;;;;7.58;100.00;100265.16;5060301;28;20044;-79
2023/03/10 04:35:53;;;;;;;65.82;58.88;;;;;;;7.87;100.00;100265.91;5060833;28;20079;-79
2023/03/10 04:38:21;;;;;;;68.78;61.65;;;;;;;7.78;100.00;100270.53;5062907;28;20053;-79
2023/03/10 04:40:53;;;;;;;67.80;61.10;;;;;;;7.97;100.00;100273.44;5064169;28;20049;-79
2023/03/10 04:43:21;;;;;;;69.35;62.70;;;;;;;7.92;100.00;100275.88;5064900;28;20506;-79
2023/03/10 04:45:48;;;;;;;77.00;69.28;;;;;;;7.84;100.00;100283.97;5065133;28;20067;-79
2023/03/10 04:48:15;;;;;;;62.83;57.13;;;;;;;7.97;100.00;100281.38;5063912;28;20052;-79
2023/03/10 04:50:42;;;;;;;54.15;49.25;;;;;;;7.53;100.00;100288.75;5064992;28;20559;-79
2023/03/10 04:53:09;;;;;;;52.97;48.40;;;;;;;7.64;100.00;100286.53;5064399;28;20075;-79
2023/03/10 04:55:35;;;;;;;59.08;53.30;;;;;;;7.93;100.00;100288.09;5064006;28;20044;-79
2023/03/10 04:58:02;;;;;;;57.00;51.80;;;;;;;7.94;100.00;100293.16;5070545;28;20075;-79
2023/03/10 05:00:30;;;;;;;71.05;64.18;;;;;;;8.29;100.00;100292.22;5084025;28;20045;-79
2023/03/10 05:02:57;;;;;;;69.78;62.90;;;;;;;8.06;100.00;100285.47;5084270;28;20049;-79
2023/03/10 05:05:24;;;;;;;73.90;66.38;;;;;;;7.92;100.00;100281.16;5084211;28;20110;-79
2023/03/10 05:07:51;;;;;;;76.20;68.88;;;;;;;8.63;100.00;100281.50;5085805;28;20082;-79
2023/03/10 05:10:18;;;;;;;143.43;89.68;;;;;;;8.70;100.00;100292.09;5085046;28;20052;-79
2023/03/10 05:12:44;;;;;;;78.20;69.95;;;;;;;8.46;100.00;100298.78;5085397;28;20044;-79
2023/03/10 05:15:12;;;;;;;71.95;65.15;;;;;;;8.55;100.00;100294.13;5085199;28;20052;-79
2023/03/10 05:17:40;;;;;;;71.35;64.65;;;;;;;8.59;100.00;100290.03;5085317;28;20044;-79
2023/03/10 05:20:08;;;;;;;67.55;61.15;;;;;;;8.62;100.00;100292.28;5084647;28;20505;-79
2023/03/10 05:22:36;;;;;;;66.90;60.20;;;;;;;8.70;100.00;100297.38;5085110;28;20083;-79
2023/03/10 05:25:03;;;;;;;62.78;57.05;;;;;;;8.62;100.00;100292.28;5085612;28;20084;-79
2023/03/10 05:27:32;;;;;;;64.95;58.55;;;;;;;8.82;100.00;100294.94;5084586;28;20045;-79
2023/03/10 05:29:59;;;;;;;72.00;65.40;;;;;;;9.10;100.00;100303.47;5085365;28;20051;-79
2023/03/10 05:32:25;;;;;;;69.30;63.22;;;;;;;9.20;100.00;100295.13;5085657;28;20049;-79
2023/03/10 05:34:53;;;;;;;70.03;63.90;;;;;;;9.47;100.00;100279.97;5086491;28;20075;-79
2023/03/10 05:37:20;;;;;;;68.53;62.13;;;;;;;9.78;100.00;100286.38;5086261;28;20056;-79
2023/03/10 05:39:47;;;;;;;70.72;64.13;;;;;;;9.95;100.00;100290.13;5085888;28;20102;-79
2023/03/10 05:42:14;;;;;;;74.28;67.78;;;;;;;10.25;100.00;100290.38;5086559;28;20056;-79
2023/03/10 05:44:40;;;;;;;75.85;69.28;;;;;;;10.49;100.00;100290.66;5086779;28;20075;-78
2023/03/10 05:47:07;;;;;;;77.35;70.65;;;;;;;10.68;100.00;100299.50;5087346;28;20082;-79
2023/03/10 05:49:34;;;;;;;84.30;77.20;;;;;;;10.67;100.00;100297.88;5085430;28;20094;-79
2023/03/10 05:52:02;;;;;;;87.68;80.00;;;;;;;10.66;100.00;100299.72;5085639;28;20052;-79
2023/03/10 05:54:29;;;;;;;86.10;78.18;;;;;;;10.71;100.00;100286.63;5085389;28;20106;-79
2023/03/10 05:56:56;;;;;;;92.18;83.93;;;;;;;10.84;100.00;100284.88;5085965;28;20467;-79
2023/03/10 05:59:23;;;;;;;79.45;72.20;;;;;;;10.93;100.00;100297.66;5086294;28;20070;-79
2023/03/10 06:01:49;;;;;;;81.05;74.15;;;;;;;11.02;100.00;100278.81;5086134;28;20053;-79
2023/03/10 06:04:16;;;;;;;83.15;76.28;;;;;;;10.97;100.00;100288.22;5086307;28;20071;-79
2023/03/10 06:06:43;;;;;;;87.05;79.75;;;;;;;11.13;100.00;100292.16;5086357;28;20082;-79
2023/03/10 06:09:11;;;;;;;85.07;77.97;;;;;;;11.20;100.00;100278.81;5086525;28;20040;-79
2023/03/10 06:11:38;;;;;;;69.53;63.58;;;;;;;11.15;100.00;100286.63;5086096;28;20056;-79
2023/03/10 06:14:04;;;;;;;73.50;67.40;;;;;;;11.27;100.00;100287.53;5086250;28;20087;-79
2023/03/10 06:16:31;;;;;;;78.82;72.13;;;;;;;11.32;100.00;100289.53;5086986;28;20056;-79
2023/03/10 06:18:58;;;;;;;82.88;75.75;;;;;;;11.44;100.00;100303.72;5086602;28;20075;-79
2023/03/10 06:21:25;;;;;;;91.43;83.55;;;;;;;11.52;100.00;100302.59;5086861;28;20098;-79
2023/03/10 06:23:52;;;;;;;90.10;82.22;;;;;;;11.60;100.00;100303.13;5086189;28;20173;-79
2023/03/10 06:26:21;;;;;;;78.43;71.90;;;;;;;11.64;100.00;100306.13;5085944;28;20131;-79
2023/03/10 06:28:48;;;;;;;78.35;71.38;;;;;;;11.72;100.00;100313.03;5085862;28;20113;-79
2023/03/10 06:31:17;;;;;;;80.15;73.28;;;;;;;11.77;100.00;100318.47;5085935;28;20053;-79
2023/03/10 06:33:44;;;;;;;82.72;75.97;;;;;;;11.80;100.00;100312.69;5086126;28;20113;-79
2023/03/10 06:36:12;;;;;;;78.00;71.55;;;;;;;11.79;100.00;100319.88;5085431;28;20040;-79
2023/03/10 06:38:40;;;;;;;77.80;70.85;;;;;;;11.91;100.00;100314.63;5086053;28;20052;-79
2023/03/10 06:41:07;;;;;;;75.22;68.45;;;;;;;11.96;100.00;100312.13;5086566;28;20049;-79
2023/03/10 06:43:35;;;;;;;78.45;71.38;;;;;;;12.19;100.00;100314.06;5085871;28;20087;-79
2023/03/10 06:46:04;;;;;;;84.40;77.47;;;;;;;12.35;100.00;100317.94;5085619;28;20575;-79
2023/03/10 06:48:31;;;;;;;72.38;66.18;;;;;;;12.71;100.00;100319.66;5085035;28;20559;-79
2023/03/10 06:50:58;;;;;;;75.90;69.70;;;;;;;13.11;100.00;100318.19;5086187;28;20053;-79
2023/03/10 06:53:25;;;;;;;79.10;72.70;;;;;;;13.15;100.00;100314.81;5085928;28;20067;-79
2023/03/10 06:56:00;;;;;;;79.35;72.95;;;;;;;13.44;100.00;100307.75;5086210;28;20059;-79
2023/03/10 06:58:27;;;;;;;63.15;58.05;;;;;;;13.21;100.00;100302.41;5087244;28;20079;-79
2023/03/10 07:00:55;;;;;;;56.03;51.67;;;;;;;13.42;100.00;100307.16;5086838;28;20048;-79
2023/03/10 07:03:23;;;;;;;57.80;53.03;;;;;;;13.42;100.00;100293.81;5087634;28;20074;-78
2023/03/10 07:05:51;;;;;;;47.83;43.65;;;;;;;13.55;100.00;100294.59;5087225;28;20056;-79
2023/03/10 07:08:17;;;;;;;35.75;32.45;;;;;;;13.36;100.00;100286.75;5088042;28;20111;-79
2023/03/10 07:10:44;;;;;;;37.67;34.28;;;;;;;13.97;100.00;100279.97;5087590;28;20071;-79
2023/03/10 07:13:14;;;;;;;36.67;33.58;;;;;;;12.81;100.00;100271.91;5087612;28;20094;-79
2023/03/10 07:15:41;;;;;;;37.15;33.75;;;;;;;13.29;100.00;100278.88;5086857;28;20536;-79
2023/03/10 07:18:09;;;;;;;34.70;32.30;;;;;;;12.49;100.00;100279.41;5086459;28;20044;-79
2023/03/10 07:20:39;;;;;;;37.60;34.70;;;;;;;13.23;100.00;100277.13;5086098;28;20551;-79
2023/03/10 07:23:06;;;;;;;37.45;34.45;;;;;;;13.95;100.00;100267.91;5087077;28;20056;-79
2023/03/10 07:25:35;;;;;;;39.45;36.13;;;;;;;14.27;100.00;100270.06;5087503;28;20052;-79
2023/03/10 07:28:01;;;;;;;36.40;33.33;;;;;;;14.02;100.00;100262.44;5088336;28;20052;-79
2023/03/10 07:30:28;;;;;;;30.45;28.25;;;;;;;13.07;100.00;100267.16;5087406;28;20048;-79
2023/03/10 07:32:55;;;;;;;33.78;31.38;;;;;;;13.04;100.00;100264.94;5085862;28;20056;-79
2023/03/10 07:35:23;;;;;;;31.30;29.25;;;;;;;12.76;100.00;100258.47;5085852;28;20090;-79
2023/03/10 07:37:49;;;;;;;33.17;30.88;;;;;;;12.72;100.00;100252.00;5085034;28;20116;-79
2023/03/10 07:40:16;;;;;;;30.55;28.40;;;;;;;12.37;100.00;100250.13;5085387;28;20049;-79
2023/03/10 07:42:43;;;;;;;31.55;29.10;;;;;;;12.99;100.00;100252.34;5085573;28;20110;-79
2023/03/10 07:45:11;;;;;;;44.05;40.55;;;;;;;14.10;100.00;100246.84;5086874;28;20044;-79
2023/03/10 07:47:37;;;;;;;32.85;30.45;;;;;;;13.55;100.00;100252.72;5086718;28;20111;-79
2023/03/10 07:50:05;;;;;;;33.03;30.02;;;;;;;14.43;100.00;100258.56;5086136;28;20060;-79
2023/03/10 07:52:33;;;;;;;37.40;34.20;;;;;;;14.18;100.00;100249.09;5087099;28;20071;-79
2023/03/10 07:55:00;;;;;;;33.35;30.55;;;;;;;14.21;100.00;100245.13;5085874;28;20102;-79
2023/03/10 07:57:28;;;;;;;32.15;29.75;;;;;;;13.71;100.00;100245.84;5086242;28;20076;-79
2023/03/10 07:59:55;;;;;;;29.38;27.33;;;;;;;13.55;100.00;100236.72;5086254;28;20048;-79
2023/03/10 08:02:22;;;;;;;32.33;29.65;;;;;;;13.77;100.00;100225.38;5086003;28;20070;-79
2023/03/10 08:04:48;;;;;;;33.15;30.40;;;;;;;14.08;100.00;100222.22;5087042;28;20052;-79
2023/03/10 08:07:15;;;;;;;29.90;27.65;;;;;;;13.87;100.00;100222.91;5086195;28;20056;-79
2023/03/10 08:09:49;;;;;;;36.28;33.08;;;;;;;14.60;100.00;100227.38;5085592;28;20135;-79
2023/03/10 08:12:16;;;;;;;31.38;28.67;;;;;;;14.41;100.00;100228.66;5087916;28;20044;-80
2023/03/10 08:14:43;;;;;;;26.25;24.20;;;;;;;13.50;100.00;100225.97;5091346;28;20078;-79
2023/03/10 08:17:09;;;;;;;32.28;29.67;;;;;;;14.40;100.00;100227.84;5091071;28;20045;-79
2023/03/10 08:19:38;;;;;;;34.15;31.25;;;;;;;14.78;100.00;100230.84;5090552;28;20495;-79
2023/03/10 08:22:05;;;;;;;38.80;35.58;;;;;;;14.72;100.00;100226.47;5090086;28;20048;-79
2023/03/10 08:24:31;;;;;;;36.90;33.90;;;;;;;15.32;100.00;100231.03;5090745;28;20056;-79
2023/03/10 08:26:59;;;;;;;38.50;35.70;;;;;;;15.33;100.00;100217.38;5090722;28;20051;-79
2023/03/10 08:29:26;;;;;;;31.92;29.63;;;;;;;14.64;100.00;100231.19;5091068;28;20110;-79
2023/03/10 08:31:53;;;;;;;34.83;32.22;;;;;;;14.60;100.00;100223.88;5090423;28;20049;-79
2023/03/10 08:34:20;;;;;;;31.77;29.08;;;;;;;14.43;100.00;100238.03;5090429;28;20051;-79
2023/03/10 08:36:46;;;;;;;36.65;33.78;;;;;;;15.40;100.00;100227.94;5090798;28;20052;-79
2023/03/10 08:39:13;;;;;;;34.92;32.20;;;;;;;15.90;100.00;100232.22;5089549;28;20058;-79
2023/03/10 08:41:44;;;;;;;31.27;28.95;;;;;;;16.11;100.00;100227.88;5090595;28;20048;-79
2023/03/10 08:44:14;;;;;;;29.10;27.00;;;;;;;15.95;100.00;100237.66;5090900;28;20135;-79
2023/03/10 08:46:42;;;;;;;32.25;29.75;;;;;;;16.51;100.00;100231.94;5090954;28;20067;-79
2023/03/10 08:49:09;;;;;;;30.85;28.65;;;;;;;16.94;100.00;100233.63;5091414;28;20048;-79
2023/03/10 08:51:37;;;;;;;27.70;25.70;;;;;;;16.19;100.00;100224.75;5091067;28;20048;-79
2023/03/10 08:54:05;;;;;;;27.33;25.17;;;;;;;17.06;100.00;100230.72;5089989;28;20053;-79
2023/03/10 08:56:32;;;;;;;28.35;26.30;;;;;;;16.25;100.00;100222.94;5090437;28;20523;-79
2023/03/10 08:58:59;;;;;;;27.17;25.30;;;;;;;16.92;100.00;100214.31;5090027;28;20110;-79
2023/03/10 09:01:30;;;;;;;30.33;28.08;;;;;;;16.82;100.00;100208.84;5090599;28;20052;-79
2023/03/10 09:03:57;;;;;;;26.30;24.70;;;;;;;17.35;100.00;100214.22;5090311;28;20053;-79
2023/03/10 09:06:24;;;;;;;24.63;22.92;;;;;;;17.54;100.00;100206.50;5089954;28;20090;-79
2023/03/10 09:08:51;;;;;;;27.25;25.40;;;;;;;17.70;100.00;100197.44;5092037;28;20082;-79
2023/03/10 09:11:20;;;;;;;26.85;25.05;;;;;;;18.14;100.00;100201.53;5091553;28;20042;-79
2023/03/10 09:13:47;;;;;;;25.25;23.33;;;;;;;17.51;100.00;100202.47;5091635;28;20052;-79
2023/03/10 09:16:14;;;;;;;23.95;22.10;;;;;;;18.51;100.00;100193.16;5090953;28;20049;-79
2023/03/10 09:18:43;;;;;;;23.40;21.80;;;;;;;18.75;100.00;100194.22;5091596;28;20045;-79
2023/03/10 09:21:13;;;;;;;25.58;23.77;;;;;;;18.60;100.00;100198.81;5091476;28;20460;-79
2023/03/10 09:23:42;;;;;;;25.58;23.88;;;;;;;18.79;100.00;100185.59;5090973;28;20048;-79
2023/03/10 09:26:09;;;;;;;26.70;24.90;;;;;;;18.85;100.00;100182.66;5091695;28;20048;-79
2023/03/10 09:28:35;;;;;;;22.05;20.45;;;;;;;18.85;100.00;100174.59;5091328;28;20082;-79
2023/03/10 09:31:04;;;;;;;23.90;22.30;;;;;;;19.51;100.00;100168.06;5091195;28;20487;-79
2023/03/10 09:33:31;;;;;;;24.00;22.40;;;;;;;19.70;100.00;100162.06;5092500;28;20052;-79
2023/03/10 09:36:01;;;;;;;26.10;24.20;;;;;;;19.52;100.00;100158.94;5091964;28;20052;-79
2023/03/10 09:38:29;;;;;;;26.55;24.73;;;;;;;20.02;100.00;100148.88;5092074;28;20551;-80
2023/03/10 09:41:04;;;;;;;22.52;20.77;;;;;;;20.04;100.00;100143.22;5092235;28;20048;-79
2023/03/10 09:43:36;;;;;;;21.58;19.98;;;;;;;20.18;100.00;100146.06;5091418;28;20044;-79
2023/03/10 09:46:14;;;;;;;20.23;18.83;;;;;;;19.74;100.00;100145.06;5092240;28;20063;-79
2023/03/10 09:48:50;;;;;;;21.08;19.48;;;;;;;19.81;100.00;100132.06;5091851;28;20052;-79
2023/03/10 09:51:22;;;;;;;23.33;21.25;;;;;;;19.16;100.00;100128.69;5091905;28;20044;-80
2023/03/10 09:54:08;;;;;;;24.57;22.10;;;;;;;18.45;100.00;100121.66;5090582;28;20052;-79
2023/03/10 09:56:36;;;;;;;21.27;19.67;;;;;;;18.77;100.00;100113.25;5091174;28;20486;-79
2023/03/10 09:59:09;;;;;;;22.83;20.92;;;;;;;18.64;100.00;100114.63;5091310;28;20044;-79
2023/03/10 10:01:38;;;;;;;21.17;19.42;;;;;;;19.29;100.00;100105.75;5090832;28;20420;-79
2023/03/10 10:04:09;;;;;;;20.50;18.90;;;;;;;19.09;100.00;100107.47;5090457;28;20055;-79
2023/03/10 10:06:42;;;;;;;20.75;19.15;;;;;;;19.22;100.00;100116.81;5090805;28;20052;-79
2023/03/10 10:09:27;;;;;;;20.75;18.95;;;;;;;18.88;100.00;100112.16;5090895;28;20048;-79
2023/03/10 10:11:54;;;;;;;21.73;20.02;;;;;;;19.13;100.00;100111.22;5090486;28;20068;-80
2023/03/10 10:14:23;;;;;;;21.60;19.90;;;;;;;18.89;100.00;100116.44;5090277;28;20084;-79
2023/03/10 10:16:57;;;;;;;21.30;19.42;;;;;;;18.95;100.00;100107.25;5090553;28;20074;-79
2023/03/10 10:19:26;;;;;;;20.05;18.45;;;;;;;19.10;100.00;100103.69;5090294;28;20063;-79
2023/03/10 10:22:01;;;;;;;20.48;19.08;;;;;;;18.81;100.00;100092.78;5089958;28;20050;-79
2023/03/10 10:24:28;;;;;;;20.60;19.20;;;;;;;18.61;100.00;100099.03;5089582;28;20072;-79
2023/03/10 10:26:55;;;;;;;21.27;19.58;;;;;;;18.93;100.00;100090.59;5089252;28;20502;-79
2023/03/10 10:29:24;;;;;;;21.10;19.60;;;;;;;19.47;100.00;100091.63;5090273;28;20105;-79
2023/03/10 10:32:06;;;;;;;19.50;18.17;;;;;;;19.04;100.00;100077.09;5089980;28;20045;-79
2023/03/10 10:34:34;;;;;;;21.67;19.95;;;;;;;18.87;100.00;100075.53;5089634;28;20060;-79
2023/03/10 10:37:03;;;;;;;22.10;20.50;;;;;;;19.13;100.00;100068.16;5088973;28;20044;-79
2023/03/10 10:39:32;;;;;;;21.92;20.10;;;;;;;19.43;100.00;100069.84;5089889;28;20071;-79
2023/03/10 10:42:22;;;;;;;20.40;19.00;;;;;;;20.20;95.05;100069.19;5090109;28;20074;-79
2023/03/10 10:44:52;;;;;;;20.73;19.33;;;;;;;20.68;92.37;100060.34;5090893;28;20079;-79
2023/03/10 10:47:28;;;;;;;19.50;18.05;;;;;;;20.67;94.27;100053.34;5090547;28;20044;-79
2023/03/10 10:50:08;;;;;;;18.90;17.50;;;;;;;19.84;86.15;100064.16;5090149;28;20104;-79
2023/03/10 10:52:36;;;;;;;19.98;18.40;;;;;;;21.35;84.32;100044.03;5090557;28;20094;-79
2023/03/10 10:55:04;;;;;;;19.98;18.48;;;;;;;21.09;94.16;100044.41;5089811;28;20041;-80
2023/03/10 10:57:34;;;;;;;20.08;18.58;;;;;;;20.08;85.35;100036.44;5090087;28;20052;-79
2023/03/10 11:00:24;;;;;;;19.70;18.20;;;;;;;21.90;81.21;100028.78;5090683;28;20059;-79
2023/03/10 11:02:51;;;;;;;20.33;18.63;;;;;;;20.62;89.33;100032.63;5089988;28;20048;-79
2023/03/10 11:05:21;;;;;;;21.00;19.27;;;;;;;21.38;77.64;100022.66;5090053;28;20052;-80
2023/03/10 11:07:51;;;;;;;22.10;20.40;;;;;;;22.07;83.85;100017.41;5090828;28;20056;-80
2023/03/10 11:10:20;;;;;;;20.35;18.48;;;;;;;23.00;76.22;100011.75;5090352;28;20083;-80